Latest Weather Observations for Wilkins Runway*

IDT60801

Issued at 7:32 pm EDT Saturday 21 October 2017 (issued every 30 minutes, with the page automatically refreshed every 10 minutes)

About weather observations | Map of weather stations | Latest weather observations for ANT | Other Formats
Station Details ID: 300050 Name: WILKINS RUNWAY EAST Lat: -66.68 Lon: 111.53 Height: 753.0 m
Data from the previous 72 hours. | See also: Recent months for locations in Antarctica
Date/Time
EDT
Temp
°C
App
Temp
°C
Dew
Point
°C
Rel
Hum
%
Delta-T
°C
Wind Press
QNH
hPa
Press
MSL
hPa
Rain since
9am
mm
Dir  Spd
km/h
Gust
km/h
Spd
kts
Gust
kts
21/07:30pm -16.7 -31.9 -21.2 68 - ESE 61 87 33 47 977.0 - -
21/07:24pm -16.6 -33.0 -21.1 68 - E 67 87 36 47 977.2 - -
21/07:22pm -16.6 -33.9 -20.8 70 - E 72 87 39 47 976.3 - -
21/07:21pm -16.7 -29.0 -20.5 72 - ESE 46 76 25 41 976.3 - -
21/07:20pm -16.7 -27.7 -21.2 68 - ESE 39 50 21 27 977.0 - -
21/07:00pm -16.5 -32.8 -21.0 68 - E 67 91 36 49 976.5 - -
21/06:30pm -16.4 -32.4 -20.6 70 - E 65 87 35 47 976.7 - -
21/06:00pm -16.2 -32.1 -20.4 70 - E 65 83 35 45 976.1 - -
21/05:30pm -16.4 -32.0 -20.2 72 - E 63 83 34 45 976.3 - -
21/05:04pm -16.0 -30.8 -20.0 71 - E 59 80 32 43 976.2 - -
21/05:03pm -15.9 -30.7 -20.4 68 - E 59 67 32 36 976.3 - -
21/05:00pm -15.9 -26.9 -20.9 65 - ESE 39 72 21 39 976.6 - -
21/04:59pm -15.9 -32.8 -21.1 64 - E 70 91 38 49 977.0 - -
21/04:57pm -15.9 -33.9 -19.9 71 - E 76 91 41 49 975.7 - -
21/04:54pm -15.9 -27.9 -20.6 67 - ESE 44 65 24 35 976.6 - -
21/04:53pm -15.9 -32.8 -20.8 66 - E 70 91 38 49 976.7 - -
21/04:52pm -15.8 -34.6 -20.3 68 - E 80 91 43 49 976.5 - -
21/04:31pm -15.7 -30.5 -20.1 69 - ESE 59 78 32 42 976.3 - -
21/04:30pm -15.7 -30.9 -19.7 71 - ESE 61 78 33 42 976.3 - -
21/04:28pm -15.8 -29.6 -19.2 75 - ESE 54 76 29 41 976.0 - -
21/04:27pm -15.9 -29.0 -20.3 69 - ESE 50 63 27 34 976.5 - -
21/04:25pm -15.8 -33.1 -19.7 72 - E 72 83 39 45 976.2 - -
21/04:23pm -15.8 -28.9 -19.2 75 - E 50 76 27 41 975.9 - -
21/04:22pm -15.7 -28.0 -19.6 72 - ESE 46 57 25 31 976.3 - -
21/04:19pm -15.7 -32.9 -19.1 75 - E 72 82 39 44 975.9 - -
21/04:18pm -15.8 -29.2 -19.2 75 - ESE 52 82 28 44 975.7 - -
21/04:17pm -15.7 -27.6 -19.6 72 - ESE 44 63 24 34 976.3 - -
21/04:16pm -15.7 -28.0 -20.1 69 - ESE 46 63 25 34 976.5 - -
21/04:13pm -15.7 -32.9 -19.1 75 - E 72 83 39 45 975.7 - -
21/04:11pm -15.7 -25.9 -19.3 74 - ESE 35 67 19 36 976.2 - -
21/04:00pm -15.7 -31.6 -19.1 75 - E 65 83 35 45 975.6 - -
21/03:30pm -15.6 -31.1 -18.8 76 - E 63 91 34 49 975.7 - -
21/03:00pm -15.9 -31.8 -19.0 77 - E 65 83 35 45 975.5 - -
21/02:30pm -15.5 -31.0 -18.4 78 - E 63 78 34 42 975.6 - -
21/02:04pm -15.7 -31.6 -18.3 80 - E 65 83 35 45 975.6 - -
21/02:00pm -15.8 -32.1 -18.6 79 - E 67 83 36 45 975.6 - -
21/01:30pm -15.9 -31.4 -18.5 80 - E 63 87 34 47 975.6 - -
21/01:01pm -16.1 -31.6 -18.9 79 - E 63 83 34 45 975.1 - -
21/01:00pm -16.0 -31.5 -18.9 78 - E 63 78 34 42 975.4 - -
21/12:30pm -16.4 -31.5 -19.0 80 - E 61 74 33 40 975.5 - -
21/12:00pm -16.4 -31.2 -19.2 79 - E 59 78 32 42 975.4 - -
21/11:59am -16.1 -30.9 -18.9 79 - E 59 78 32 42 975.8 - -
21/11:54am -16.5 -32.4 -19.1 80 - E 65 78 35 42 975.5 - -
21/11:53am -16.4 -28.3 -19.0 80 - E 44 78 24 42 975.3 - -
21/11:52am -16.4 -26.2 -19.2 79 - E 33 56 18 30 975.7 - -
21/11:51am -16.3 -30.7 -19.1 79 - E 57 82 31 44 975.9 - -
21/11:50am -16.3 -32.6 -19.1 79 - E 67 82 36 44 975.4 - -
21/11:46am -16.1 -27.4 -18.7 80 - E 41 93 22 50 974.9 - -
21/11:45am -16.4 -24.5 -19.0 80 - E 24 50 13 27 975.6 - -
21/11:30am -16.9 -32.1 -19.4 81 - E 61 83 33 45 975.9 - -
21/11:20am -17.2 -32.7 -19.7 81 - E 63 87 34 47 974.9 - -
21/11:00am -17.5 -33.8 -20.0 81 - E 67 80 36 43 975.4 - -
21/10:30am -17.5 -32.7 -20.2 79 - E 61 80 33 43 975.2 - -
21/10:09am -17.2 -32.4 -19.8 80 - E 61 80 33 43 975.3 - -
21/10:00am -17.1 -33.0 -19.7 80 - E 65 80 35 43 974.9 - -
21/09:30am -16.8 -32.3 -19.3 81 - E 63 74 34 40 975.2 - -
21/09:00am -16.7 -32.2 -19.2 81 - E 63 72 34 39 974.9 - -
21/08:30am -16.8 -32.3 -19.3 81 - E 63 74 34 40 974.8 - -
21/08:00am -16.7 -31.8 -19.2 81 - E 61 74 33 40 974.6 - -
21/07:30am -17.0 -31.4 -19.9 78 - E 57 69 31 37 975.1 - -
21/07:00am -17.2 -32.8 -20.1 78 - E 63 74 34 40 975.2 - -
21/06:39am -17.1 -32.7 -20.1 77 - E 63 82 34 44 975.4 - -
21/06:30am -17.0 -32.6 -19.9 78 - E 63 76 34 41 975.1 - -
21/06:00am -17.1 -33.0 -20.1 77 - E 65 76 35 41 974.9 - -
21/05:30am -17.4 -33.3 -20.4 77 - E 65 74 35 40 975.1 - -
21/05:00am -17.5 -33.1 -21.0 74 - E 63 72 34 39 975.3 - -
21/04:35am -17.2 -32.4 -21.7 68 - E 61 82 33 44 975.8 - -
21/04:30am -17.5 -32.3 -21.1 73 - E 59 70 32 38 975.6 - -
21/04:00am -17.6 -32.8 -21.4 72 - E 61 70 33 38 975.9 - -
21/03:30am -17.8 -32.6 -21.6 72 - E 59 69 32 37 976.0 - -
21/03:00am -18.0 -32.9 -21.8 72 - E 59 67 32 36 976.5 - -
21/02:30am -18.1 -32.6 -22.4 69 - E 57 65 31 35 976.7 - -
21/02:00am -17.7 -32.2 -22.8 64 - E 57 69 31 37 976.9 - -
21/01:30am -17.6 -31.9 -22.9 63 - E 56 67 30 36 976.9 - -
21/01:00am -17.6 -31.1 -22.4 66 - E 52 63 28 34 977.2 - -
21/12:30am -17.7 -31.6 -22.8 64 - E 54 61 29 33 977.4 - -
21/12:00am -18.0 -31.2 -22.4 68 - E 50 57 27 31 977.5 - -
 
Date/Time
EDT
Temp
°C
App
Temp
°C
Dew
Point
°C
Rel
Hum
%
Delta-T
°C
Wind Press
QNH
hPa
Press
MSL
hPa
Rain since
9am
mm
Dir  Spd
km/h
Gust
km/h
Spd
kts
Gust
kts
20/11:30pm -17.9 -31.1 -22.3 68 - E 50 59 27 32 977.7 - -
20/11:00pm -18.0 -30.8 -22.3 69 - E 48 54 26 29 978.1 - -
20/10:30pm -18.0 -30.8 -22.3 69 - E 48 56 26 30 978.3 - -
20/10:00pm -18.2 -30.2 -22.5 69 - E 44 54 24 29 978.6 - -
20/09:30pm -18.0 -29.5 -22.6 67 - E 41 46 22 25 978.7 - -
20/09:17pm -17.7 -28.4 -22.7 65 - E 37 44 20 24 978.7 - -
20/09:00pm -17.1 -24.6 -22.4 63 - E 20 24 11 13 979.1 - -
20/08:30pm -16.4 -25.0 -22.1 61 - ENE 26 32 14 17 979.4 - -
20/08:00pm -16.0 -25.3 -21.6 62 - E 30 33 16 18 979.4 - -
20/07:30pm -15.8 -24.8 -21.4 62 - E 28 33 15 18 979.5 - -
20/07:00pm -15.7 -25.0 -21.3 62 - E 30 33 16 18 979.7 - -
20/06:30pm -15.9 -25.6 -21.3 63 - E 32 35 17 19 979.8 - -
20/06:00pm -15.5 -25.2 -21.5 60 - E 32 35 17 19 979.7 - -
20/05:30pm -14.4 -22.9 -19.3 66 - E 26 30 14 16 979.6 - -
20/05:00pm -14.4 -22.9 -19.7 64 - E 26 30 14 16 979.7 - -
20/04:30pm -14.6 -22.7 -19.7 65 - E 24 28 13 15 979.6 - -
20/04:00pm -13.3 -18.9 -18.6 64 - ESE 11 13 6 7 979.4 - -
20/03:30pm -13.2 -18.4 -18.7 63 - ESE 9 11 5 6 979.3 - -
20/03:00pm -13.1 -18.0 -18.8 62 - ESE 7 11 4 6 979.0 - -
20/02:30pm -12.2 -15.8 -19.6 54 - CALM 0 0 0 0 978.8 - -
20/02:00pm -11.0 -15.9 -18.4 54 - N 7 11 4 6 978.5 - -
20/01:30pm -12.0 -16.9 -18.6 58 - N 7 11 4 6 978.4 - -
20/01:00pm -14.1 -19.0 -19.4 64 - NNE 7 9 4 5 978.2 - -
20/12:30pm -15.1 -20.7 -19.2 71 - N 11 13 6 7 978.2 - -
20/12:00pm -16.7 -23.9 -20.4 73 - NE 19 22 10 12 977.9 - -
20/11:30am -17.7 -25.9 -21.0 75 - ENE 24 24 13 13 977.6 - -
20/11:00am -17.9 -25.3 -21.4 74 - ENE 20 22 11 12 977.5 - -
20/10:30am -18.4 -25.8 -21.9 74 - NE 20 22 11 12 977.4 - -
20/10:00am -19.2 -27.0 -22.6 74 - ENE 22 24 12 13 977.2 - -
20/09:30am -19.3 -26.6 -22.7 74 - NE 19 22 10 12 977.0 - -
20/09:00am -19.9 -27.8 -23.2 75 - NE 22 24 12 13 976.7 - -
20/08:30am -20.2 -28.1 -23.5 75 - NE 22 24 12 13 976.5 - -
20/08:00am -20.8 -28.7 -24.3 73 - ENE 22 26 12 14 976.1 - -
20/07:30am -20.8 -29.5 -24.3 73 - NE 26 30 14 16 975.7 - -
20/07:00am -21.1 -29.8 -24.6 73 - ENE 26 28 14 15 975.3 - -
20/06:30am -20.9 -27.5 -24.4 73 - ENE 15 24 8 13 974.6 - -
20/06:00am -21.4 -30.5 -24.9 73 - E 28 30 15 16 974.2 - -
20/05:30am -21.7 -31.1 -25.4 72 - E 30 32 16 17 973.7 - -
20/05:00am -20.1 -26.3 -23.4 75 - ENE 13 20 7 11 973.9 - -
20/04:30am -20.3 -25.7 -24.0 72 - NNE 9 19 5 10 973.5 - -
20/04:00am -20.9 -26.4 -25.4 67 - N 9 15 5 8 973.3 - -
20/03:30am -20.4 -26.2 -24.3 71 - NNE 11 15 6 8 973.0 - -
20/03:00am -20.6 -27.9 -24.5 71 - NE 19 22 10 12 972.4 - -
20/02:30am -18.5 -26.0 -22.3 72 - E 20 24 11 13 971.8 - -
20/02:00am -21.0 -30.4 -24.8 71 - E 30 33 16 18 971.1 - -
20/01:30am -20.1 -30.5 -24.0 71 - E 35 39 19 21 970.6 - -
20/01:00am -19.7 -29.7 -24.2 67 - E 33 35 18 19 970.1 - -
20/12:30am -19.1 -29.5 -23.8 66 - E 35 39 19 21 969.5 - -
20/12:00am -19.0 -28.8 -23.7 66 - E 32 35 17 19 969.1 - -
 
Date/Time
EDT
Temp
°C
App
Temp
°C
Dew
Point
°C
Rel
Hum
%
Delta-T
°C
Wind Press
QNH
hPa
Press
MSL
hPa
Rain since
9am
mm
Dir  Spd
km/h
Gust
km/h
Spd
kts
Gust
kts
19/11:30pm -18.6 -28.4 -23.0 68 - E 32 35 17 19 968.8 - -
19/11:00pm -18.1 -27.5 -22.4 69 - E 30 35 16 19 968.3 - -
19/10:30pm -18.1 -25.9 -22.0 71 - E 22 28 12 15 968.0 - -
19/10:00pm -16.4 -22.1 -20.1 73 - E 11 13 6 7 967.4 - -
19/09:30pm -14.2 -19.4 -18.3 71 - SE 9 11 5 6 967.0 - -
19/09:00pm -14.2 -20.2 -18.4 70 - ESE 13 15 7 8 966.7 - -
19/08:30pm -14.2 -21.4 -19.0 67 - E 19 20 10 11 966.3 - -
19/08:00pm -13.7 -20.9 -18.8 65 - E 19 20 10 11 966.0 - -
19/07:30pm -12.6 -16.4 -17.1 69 - WNW 2 6 1 3 965.7 - -
19/07:00pm -11.0 -14.4 -16.3 65 - CALM 0 0 0 0 965.2 - -
19/06:30pm -12.9 -18.4 -16.5 74 - NW 11 13 6 7 964.8 - -
19/06:00pm -13.1 -20.3 -19.2 60 - E 19 20 10 11 964.4 - -
19/05:30pm -13.4 -21.2 -19.9 58 - E 22 28 12 15 964.0 - -
19/05:00pm -13.9 -22.8 -20.1 59 - E 28 35 15 19 963.6 - -
19/04:30pm -13.9 -23.2 -20.0 60 - E 30 33 16 18 963.3 - -
19/04:00pm -14.3 -24.2 -20.5 59 - E 33 39 18 21 963.0 - -
19/03:30pm -14.3 -24.0 -20.5 59 - E 32 37 17 20 962.9 - -
19/03:00pm -14.7 -24.4 -20.1 63 - E 32 37 17 20 962.7 - -
19/02:30pm -14.8 -24.7 -20.6 61 - E 33 41 18 22 962.5 - -
19/02:00pm -15.2 -25.5 -21.2 60 - E 35 43 19 23 962.5 - -
19/01:30pm -15.4 -25.1 -21.2 61 - E 32 39 17 21 962.5 - -
19/01:00pm -16.1 -26.4 -21.7 62 - E 35 41 19 22 962.5 - -
19/12:30pm -16.4 -27.5 -21.8 63 - E 39 48 21 26 962.5 - -
19/12:00pm -17.2 -28.3 -22.7 62 - E 39 44 21 24 962.5 - -
19/11:30am -17.0 -29.0 -22.5 62 - E 44 52 24 28 962.6 - -
19/11:00am -17.3 -29.7 -22.4 64 - E 46 54 25 29 962.6 - -
19/10:30am -17.9 -29.8 -23.0 64 - E 43 50 23 27 962.8 - -
19/10:00am -17.7 -28.8 -23.0 63 - E 39 50 21 27 962.9 - -
19/09:30am -16.6 -28.6 -21.8 64 - E 44 59 24 32 962.8 - -
19/09:21am -16.3 -26.9 -21.0 67 - E 37 56 20 30 962.9 - -
19/09:00am -17.2 -29.0 -22.4 64 - E 43 56 23 30 962.9 - -
19/08:43am -17.4 -29.2 -22.7 63 - E 43 61 23 33 963.3 - -
19/08:06am -18.2 -29.3 -23.1 65 - E 39 57 21 31 963.4 - -
19/08:00am -17.8 -29.6 -22.8 65 - E 43 57 23 31 963.3 - -
19/07:49am -17.2 -29.0 -21.7 68 - E 43 54 23 29 962.9 - -
19/07:30am -17.1 -25.3 -21.7 67 - ENE 24 35 13 19 963.4 - -
19/07:00am -18.2 -25.5 -22.5 69 - E 19 26 10 14 963.9 - -

Other Formats:

Comma delimited format used in spreadsheet applications
http://www.bom.gov.au/fwo/IDT60803/IDT60803.89615.axf

JavaScript Object Notation format (JSON) in row-major order
http://www.bom.gov.au/fwo/IDT60803/IDT60803.89615.json